Padborg, Denmark
Current Conditions -  °F | °C
As of 2:20 PM on Monday 24 Nov 2014 (Local Time) from ETGG Reporting Station
Few Clouds Few Clouds  
Wind Chill: 52°   Ceiling: Unl
Heat Index: 52°   Visibility: 6mi
Dew Point: 43°   Wind: 21mph
Humidity: 71%   Direction: 260°W
Pressure: 30.09"   Gusts: 32mph
Location:  54.83°N, 9.36°E
Report Text: ETGG 241320Z 26018G28KT 9999 FEW030 11/06 Q1019 BLU+
Loading
Personal Weather Stations






























Interactive Weather Map New forecast layout! Learn more

10-Day Weather Forecast

Advertisements
Track Severe Weather on mobile